Time;durP1;ratioP1;P1;durP2;ratioP2;P2;SDS_P1;SDS_P2;PMS_P1;PMS_P2;Temp;Humidity;BMP_temperature;BMP_pressure;BME280_temperature;BME280_humidity;BME280_pressure;Samples;Min_cycle;Max_cycle;Signal;HPM_P1;HPM_P2
2021/08/25 00:03:13;;;;;;;6.47;2.05;;;15.70;99.90;;;;;;20502366;28;20051;-45
2021/08/25 00:13:15;;;;;;;5.43;2.05;;;15.70;99.90;;;;;;20506070;28;20062;-44
2021/08/25 00:23:16;;;;;;;3.78;1.92;;;15.60;99.90;;;;;;20526205;28;20050;-44
2021/08/25 00:33:17;;;;;;;5.18;2.65;;;15.60;99.90;;;;;;20518643;28;20487;-44
2021/08/25 00:43:18;;;;;;;5.20;2.72;;;15.60;99.90;;;;;;20516305;28;20296;-44
2021/08/25 00:53:22;;;;;;;4.82;2.63;;;15.50;99.90;;;;;;20507428;28;20481;-45
2021/08/25 01:03:31;;;;;;;5.43;2.90;;;15.60;99.90;;;;;;20501174;28;20132;-44
2021/08/25 01:13:32;;;;;;;7.72;2.47;;;15.50;99.90;;;;;;20508164;28;20058;-45
2021/08/25 01:23:43;;;;;;;5.43;3.05;;;15.40;99.90;;;;;;20499945;28;20046;-44
2021/08/25 01:33:44;;;;;;;10.25;3.97;;;15.40;99.90;;;;;;20513288;28;20060;-44
2021/08/25 01:43:45;;;;;;;7.30;3.28;;;15.30;99.90;;;;;;20437613;28;20032;-45
2021/08/25 01:53:46;;;;;;;6.70;3.22;;;15.30;99.90;;;;;;20415347;28;20039;-44
2021/08/25 02:03:48;;;;;;;11.05;3.70;;;15.20;99.90;;;;;;20433141;28;20039;-44
2021/08/25 02:13:49;;;;;;;6.93;3.33;;;15.20;99.90;;;;;;20435217;28;20043;-44
2021/08/25 02:23:50;;;;;;;8.63;3.10;;;15.20;99.90;;;;;;20431356;28;20043;-44
2021/08/25 02:33:51;;;;;;;7.82;3.95;;;15.10;99.90;;;;;;20438132;28;20061;-45
2021/08/25 02:43:53;;;;;;;6.82;3.00;;;15.00;99.90;;;;;;20479894;28;20039;-44
2021/08/25 02:53:54;;;;;;;7.35;3.78;;;14.90;99.90;;;;;;20470540;28;20047;-44
2021/08/25 03:03:55;;;;;;;7.85;3.15;;;14.80;99.90;;;;;;20472671;28;20054;-44
2021/08/25 03:13:56;;;;;;;9.02;3.22;;;14.80;99.90;;;;;;20479794;28;20283;-44
2021/08/25 03:23:57;;;;;;;7.15;3.65;;;14.80;99.90;;;;;;20473058;28;20046;-44
2021/08/25 03:33:58;;;;;;;6.47;2.67;;;14.70;99.90;;;;;;20478684;28;20048;-44
2021/08/25 03:43:59;;;;;;;7.90;3.67;;;14.60;99.90;;;;;;20460753;28;20044;-44
2021/08/25 03:54:00;;;;;;;7.57;3.25;;;14.60;99.90;;;;;;20448861;28;20051;-44
2021/08/25 04:04:05;;;;;;;8.93;3.38;;;14.50;99.90;;;;;;20413768;28;20044;-44
2021/08/25 04:14:06;;;;;;;8.18;3.47;;;14.50;99.90;;;;;;20442374;28;20063;-44
2021/08/25 04:24:08;;;;;;;10.18;4.97;;;14.40;99.90;;;;;;20421197;28;20066;-44
2021/08/25 04:34:10;;;;;;;8.52;3.47;;;14.30;99.90;;;;;;20440441;28;20054;-44
2021/08/25 04:44:11;;;;;;;10.98;4.55;;;14.30;99.90;;;;;;20438219;28;20052;-44
2021/08/25 04:54:12;;;;;;;11.15;4.30;;;14.30;99.90;;;;;;20435148;28;20052;-44
2021/08/25 05:04:13;;;;;;;8.45;4.32;;;14.40;99.90;;;;;;20449889;28;20042;-44
2021/08/25 05:14:14;;;;;;;7.75;3.78;;;14.50;99.90;;;;;;20484460;28;20103;-44
2021/08/25 05:24:15;;;;;;;7.80;3.75;;;14.40;99.90;;;;;;20477138;28;20043;-44
2021/08/25 05:34:18;;;;;;;8.20;3.65;;;14.40;99.90;;;;;;20481842;28;20047;-44
2021/08/25 05:44:19;;;;;;;7.38;3.78;;;14.50;99.90;;;;;;20530986;28;20049;-44
2021/08/25 05:54:20;;;;;;;9.65;4.60;;;14.70;99.90;;;;;;20513773;28;20435;-44
2021/08/25 06:04:21;;;;;;;9.85;4.72;;;14.80;99.90;;;;;;20538721;28;20050;-44
2021/08/25 06:14:22;;;;;;;11.25;4.50;;;15.00;99.90;;;;;;20514288;28;20051;-44
2021/08/25 06:24:23;;;;;;;7.38;4.35;;;15.20;99.90;;;;;;20503192;28;20039;-44
2021/08/25 06:34:24;;;;;;;11.18;5.63;;;15.40;99.90;;;;;;20492850;28;20050;-44
2021/08/25 06:44:25;;;;;;;12.70;4.93;;;15.50;99.90;;;;;;20536055;28;20050;-44
2021/08/25 06:54:26;;;;;;;7.35;4.13;;;15.60;99.90;;;;;;20534972;28;20063;-44
2021/08/25 07:04:27;;;;;;;8.82;4.30;;;15.90;99.90;;;;;;20500273;28;20051;-44
2021/08/25 07:14:29;;;;;;;10.57;4.28;;;16.10;99.90;;;;;;20499884;28;20051;-44
2021/08/25 07:24:30;;;;;;;7.70;3.88;;;16.10;99.90;;;;;;20526405;28;20050;-44
2021/08/25 07:34:31;;;;;;;7.82;5.05;;;16.30;99.90;;;;;;20513727;28;20063;-44
2021/08/25 07:44:32;;;;;;;6.88;3.40;;;16.40;99.90;;;;;;20512548;28;20058;-44
2021/08/25 07:54:33;;;;;;;10.70;4.03;;;16.50;99.90;;;;;;20490444;28;20039;-44
2021/08/25 08:04:34;;;;;;;7.50;2.95;;;16.60;99.90;;;;;;20476484;28;20502;-44
2021/08/25 08:14:35;;;;;;;7.60;4.18;;;16.90;99.90;;;;;;20489866;28;20331;-44
2021/08/25 08:24:36;;;;;;;9.00;3.40;;;17.00;99.90;;;;;;20505510;28;21667;-44
2021/08/25 08:34:38;;;;;;;7.88;3.10;;;17.30;99.90;;;;;;20494883;28;20063;-44
2021/08/25 08:44:42;;;;;;;7.13;2.83;;;17.50;99.90;;;;;;20460458;28;20050;-45
2021/08/25 08:54:43;;;;;;;4.18;1.95;;;17.90;99.90;;;;;;20484881;28;20060;-45
2021/08/25 09:04:46;;;;;;;4.97;2.08;;;18.20;99.90;;;;;;20467551;28;20045;-44
2021/08/25 09:14:47;;;;;;;4.70;1.90;;;18.60;99.90;;;;;;20470901;28;20305;-45
2021/08/25 09:24:48;;;;;;;3.95;1.60;;;18.90;99.90;;;;;;20467202;28;20043;-45
2021/08/25 09:35:07;;;;;;;2.65;1.40;;;19.10;99.90;;;;;;20476368;28;20077;-45
2021/08/25 09:45:12;;;;;;;3.85;1.85;;;19.30;99.90;;;;;;20512099;28;20058;-45
2021/08/25 09:55:13;;;;;;;2.50;1.15;;;19.60;99.90;;;;;;20489935;28;20100;-45
2021/08/25 10:05:22;;;;;;;2.05;1.05;;;19.70;99.90;;;;;;20519521;28;20054;-45
2021/08/25 10:15:34;;;;;;;3.72;1.17;;;19.90;99.90;;;;;;20515534;28;20496;-45
2021/08/25 10:26:08;;;;;;;4.13;1.20;;;20.10;99.90;;;;;;20533409;28;20415;-45
2021/08/25 10:36:21;;;;;;;2.08;0.85;;;20.40;99.90;;;;;;20524356;28;20130;-45
2021/08/25 10:46:22;;;;;;;2.80;1.20;;;20.60;99.90;;;;;;20525138;28;20038;-45
2021/08/25 10:56:23;;;;;;;3.17;1.52;;;20.80;99.90;;;;;;20519754;28;20131;-45
2021/08/25 11:06:28;;;;;;;2.80;1.40;;;21.00;99.90;;;;;;20513270;28;20046;-45
2021/08/25 11:16:29;;;;;;;4.28;1.50;;;20.80;99.90;;;;;;20544965;28;20050;-45
2021/08/25 11:26:30;;;;;;;2.47;1.00;;;21.40;99.90;;;;;;20533376;28;20896;-45
2021/08/25 11:36:31;;;;;;;3.22;1.77;;;21.20;99.90;;;;;;20486941;28;20048;-45
2021/08/25 11:46:32;;;;;;;2.58;1.42;;;21.20;99.90;;;;;;20437580;28;20040;-45
2021/08/25 11:56:42;;;;;;;4.75;1.60;;;21.90;99.90;;;;;;20454863;28;20047;-45
2021/08/25 12:06:43;;;;;;;2.20;1.02;;;21.30;99.90;;;;;;20440729;28;20053;-45
2021/08/25 12:17:04;;;;;;;2.63;1.20;;;21.30;99.90;;;;;;20437341;28;20476;-45
2021/08/25 12:27:05;;;;;;;1.83;1.20;;;22.00;99.90;;;;;;20432245;28;20420;-45
2021/08/25 12:37:06;;;;;;;2.33;0.93;;;22.40;99.90;;;;;;20485838;28;20054;-45
2021/08/25 12:47:10;;;;;;;2.30;0.98;;;22.00;99.90;;;;;;20520622;28;20043;-45
2021/08/25 12:57:11;;;;;;;2.75;1.02;;;21.70;99.90;;;;;;20528149;28;20487;-45
2021/08/25 13:07:12;;;;;;;6.55;1.02;;;22.10;99.90;;;;;;20502096;28;20053;-45
2021/08/25 13:17:13;;;;;;;1.75;0.60;;;22.10;99.90;;;;;;20493497;28;20499;-46
2021/08/25 13:27:15;;;;;;;1.85;0.70;;;22.60;99.90;;;;;;20516065;28;20050;-46
2021/08/25 13:37:16;;;;;;;1.50;0.80;;;22.60;99.90;;;;;;20526243;28;20042;-46
2021/08/25 13:47:17;;;;;;;0.73;0.20;;;23.20;99.90;;;;;;20518610;28;20044;-46
2021/08/25 13:57:18;;;;;;;0.85;0.40;;;23.10;99.90;;;;;;20522566;28;20059;-46
2021/08/25 14:07:20;;;;;;;1.27;0.40;;;23.10;99.90;;;;;;20516079;28;20498;-46
2021/08/25 14:17:21;;;;;;;1.65;0.20;;;23.00;99.90;;;;;;20537511;28;20055;-46
2021/08/25 14:27:22;;;;;;;0.25;0.10;;;21.50;99.90;;;;;;20520384;28;20046;-46
2021/08/25 14:37:23;;;;;;;0.45;0.10;;;21.60;99.90;;;;;;20537816;28;20503;-44
2021/08/25 14:47:24;;;;;;;0.98;0.20;;;22.00;99.90;;;;;;20547440;28;20121;-44
2021/08/25 14:57:25;;;;;;;0.40;0.10;;;22.20;99.90;;;;;;20536498;28;20058;-44
2021/08/25 15:07:26;;;;;;;0.20;0.10;;;21.90;99.90;;;;;;20549044;28;20418;-44
2021/08/25 15:17:27;;;;;;;0.88;0.13;;;21.50;99.90;;;;;;20534702;28;20046;-44
2021/08/25 15:27:29;;;;;;;0.40;0.20;;;21.20;99.90;;;;;;20550781;28;20065;-44
2021/08/25 15:37:30;;;;;;;0.60;0.40;;;21.20;99.90;;;;;;20544130;28;20053;-47
2021/08/25 15:47:32;;;;;;;0.93;0.63;;;20.70;99.90;;;;;;20522001;28;20034;-44
2021/08/25 15:57:34;;;;;;;1.23;0.55;;;20.30;99.90;;;;;;20546287;28;20078;-44
2021/08/25 16:07:36;;;;;;;1.77;0.90;;;19.90;99.90;;;;;;20498365;28;20058;-44
2021/08/25 16:17:37;;;;;;;2.53;1.60;;;19.40;99.90;;;;;;20499334;28;20051;-44
2021/08/25 16:27:38;;;;;;;1.63;1.00;;;19.20;99.90;;;;;;20501702;28;20051;-44
2021/08/25 16:37:39;;;;;;;0.75;0.40;;;19.00;99.90;;;;;;20534551;28;20493;-44
2021/08/25 16:47:41;;;;;;;0.57;0.20;;;18.80;99.90;;;;;;20493562;28;20039;-44
2021/08/25 16:57:42;;;;;;;0.38;0.10;;;18.70;99.90;;;;;;20514273;28;20042;-46
2021/08/25 17:07:43;;;;;;;0.57;0.30;;;18.60;99.90;;;;;;20498802;28;20479;-46
2021/08/25 17:17:44;;;;;;;1.45;0.40;;;18.40;99.90;;;;;;20530174;28;20051;-47
2021/08/25 17:27:45;;;;;;;1.00;0.28;;;18.20;99.90;;;;;;20525538;28;20486;-45
2021/08/25 17:37:46;;;;;;;2.60;1.73;;;18.20;99.90;;;;;;20495060;28;20051;-46
2021/08/25 17:47:47;;;;;;;2.80;1.25;;;18.30;99.90;;;;;;20453302;28;20054;-46
2021/08/25 17:57:48;;;;;;;2.67;1.15;;;18.20;99.90;;;;;;20424506;28;20507;-46
2021/08/25 18:07:50;;;;;;;2.63;1.23;;;18.20;99.90;;;;;;20459792;28;20039;-46
2021/08/25 18:17:51;;;;;;;5.10;2.03;;;18.00;99.90;;;;;;20465374;28;20044;-46
2021/08/25 18:27:52;;;;;;;3.67;1.58;;;18.00;99.90;;;;;;20456135;28;20058;-46
2021/08/25 18:37:53;;;;;;;2.13;1.10;;;18.00;99.90;;;;;;20491069;28;20050;-46
2021/08/25 18:47:54;;;;;;;0.40;0.20;;;17.90;99.90;;;;;;20531098;28;20527;-46
2021/08/25 18:57:55;;;;;;;1.75;0.60;;;17.70;99.90;;;;;;20539160;28;20062;-46
2021/08/25 19:07:56;;;;;;;2.13;1.00;;;17.30;99.90;;;;;;20526979;28;20052;-46
2021/08/25 19:17:57;;;;;;;3.78;1.17;;;17.20;99.90;;;;;;20501280;28;20184;-46
2021/08/25 19:27:59;;;;;;;2.15;1.30;;;17.20;99.90;;;;;;20516394;28;20042;-46
2021/08/25 19:38:01;;;;;;;1.20;0.40;;;17.30;99.90;;;;;;20513449;28;20058;-46
2021/08/25 19:48:03;;;;;;;1.27;0.38;;;17.20;99.90;;;;;;20516580;28;20515;-46
2021/08/25 19:58:04;;;;;;;1.55;0.57;;;17.00;99.90;;;;;;20512225;28;20490;-46
2021/08/25 20:08:05;;;;;;;5.50;0.57;;;17.00;99.90;;;;;;20513470;28;20054;-46
2021/08/25 20:18:06;;;;;;;2.80;1.00;;;17.00;99.90;;;;;;20508385;28;20407;-46
2021/08/25 20:28:07;;;;;;;2.78;0.95;;;17.00;99.90;;;;;;20510997;28;20040;-46
2021/08/25 20:38:08;;;;;;;3.50;1.05;;;17.00;99.90;;;;;;20515846;28;20383;-46
2021/08/25 20:48:09;;;;;;;2.33;0.70;;;16.90;99.90;;;;;;20481468;28;20043;-46
2021/08/25 20:58:11;;;;;;;1.73;0.55;;;16.90;99.90;;;;;;20481952;28;20078;-45
2021/08/25 21:08:12;;;;;;;3.55;0.40;;;16.80;99.90;;;;;;20493673;28;20054;-46
2021/08/25 21:18:13;;;;;;;1.70;0.50;;;16.70;99.90;;;;;;20525467;28;20062;-44
2021/08/25 21:28:14;;;;;;;2.10;0.60;;;16.80;99.90;;;;;;20527882;28;20062;-44
2021/08/25 21:38:15;;;;;;;1.30;0.40;;;16.70;99.90;;;;;;20493662;28;20055;-44
2021/08/25 21:48:16;;;;;;;5.57;0.32;;;16.70;99.90;;;;;;20465617;28;20050;-44
2021/08/25 21:58:20;;;;;;;0.30;0.20;;;16.80;99.90;;;;;;20479621;28;20043;-44
2021/08/25 22:08:21;;;;;;;1.67;0.40;;;16.70;99.90;;;;;;20469941;28;21505;-44
2021/08/25 22:18:22;;;;;;;0.50;0.17;;;16.70;99.90;;;;;;20474325;28;20050;-44
2021/08/25 22:28:23;;;;;;;0.55;0.10;;;16.70;99.90;;;;;;20474641;28;20127;-44
2021/08/25 22:38:24;;;;;;;1.42;0.20;;;16.70;99.90;;;;;;20490780;28;20454;-44
2021/08/25 22:48:27;;;;;;;5.28;0.40;;;16.60;99.90;;;;;;20523038;28;20057;-44
2021/08/25 22:58:28;;;;;;;0.80;0.10;;;16.70;99.90;;;;;;20528980;28;20039;-44
2021/08/25 23:08:29;;;;;;;0.57;0.20;;;16.80;99.90;;;;;;20518097;28;20046;-44
2021/08/25 23:18:30;;;;;;;1.25;0.20;;;16.70;99.90;;;;;;20516310;28;20205;-44
2021/08/25 23:28:31;;;;;;;2.60;0.50;;;16.70;99.90;;;;;;20523094;28;20039;-44
2021/08/25 23:38:33;;;;;;;0.90;0.20;;;16.50;99.90;;;;;;20513664;28;20058;-44
2021/08/25 23:48:34;;;;;;;0.77;0.20;;;16.40;99.90;;;;;;20517252;28;20502;-44
2021/08/25 23:58:35;;;;;;;3.00;0.50;;;16.30;99.90;;;;;;20511272;28;20055;-44
